Time;durP1;ratioP1;P1;durP2;ratioP2;P2;SDS_P1;SDS_P2;PMS_P1;PMS_P2;Temp;Humidity;BMP_temperature;BMP_pressure;BME280_temperature;BME280_humidity;BME280_pressure;Samples;Min_cycle;Max_cycle;Signal;HPM_P1;HPM_P2
2022/09/11 00:00:22;;;;;;;;;38.00;34.50;;;;;22.10;49.90;98291.56;6160105;28;97888;-55
2022/09/11 00:03:26;;;;;;;;;39.75;35.50;;;;;22.11;50.43;98289.66;6159193;28;98085;-54
2022/09/11 00:06:30;;;;;;;;;32.00;30.20;;;;;22.10;50.01;98294.31;6161412;28;98111;-55
2022/09/11 00:09:36;;;;;;;;;42.75;36.25;;;;;22.10;49.91;98293.50;6162506;28;97552;-55
2022/09/11 00:12:40;;;;;;;;;36.50;33.25;;;;;22.08;50.15;98291.09;6162380;28;98119;-55
2022/09/11 00:15:46;;;;;;;;;35.00;32.00;;;;;22.07;49.96;98286.72;6162715;28;96478;-57
2022/09/11 00:18:50;;;;;;;;;35.80;32.40;;;;;22.06;49.67;98284.28;6160228;28;97371;-56
2022/09/11 00:21:55;;;;;;;;;30.00;30.00;;;;;22.03;49.88;98286.53;6162383;28;97449;-55
2022/09/11 00:25:00;;;;;;;;;34.40;32.00;;;;;22.01;49.47;98282.47;6161042;28;97504;-55
2022/09/11 00:28:03;;;;;;;;;40.50;35.50;;;;;21.97;49.74;98285.03;6160922;28;97189;-55
2022/09/11 00:31:10;;;;;;;;;35.75;33.00;;;;;21.95;49.55;98279.03;6161790;28;98092;-57
2022/09/11 00:34:14;;;;;;;;;39.00;35.00;;;;;21.91;49.84;98277.19;6162869;28;97462;-57
2022/09/11 00:37:17;;;;;;;;;33.00;31.00;;;;;21.89;50.09;98290.41;6159168;28;96623;-57
2022/09/11 00:40:24;;;;;;;;;40.00;36.00;;;;;21.87;49.87;98289.91;6164397;28;96948;-57
2022/09/11 00:43:29;;;;;;;;;35.60;33.00;;;;;21.84;49.51;98285.88;6163868;28;98387;-57
2022/09/11 00:46:37;;;;;;;;;34.00;32.20;;;;;21.84;49.93;98290.53;6161890;28;97687;-55
2022/09/11 00:49:44;;;;;;;;;35.00;32.67;;;;;21.70;49.97;98265.06;6161152;28;97966;-55
2022/09/11 00:52:54;;;;;;;;;30.75;30.00;;;;;21.81;50.01;98285.66;6164048;28;97062;-55
2022/09/11 00:56:04;;;;;;;;;44.40;37.80;;;;;21.81;50.13;98289.22;6162643;28;97318;-57
2022/09/11 00:59:08;;;;;;;;;35.60;32.80;;;;;21.80;50.06;98276.59;6164918;28;96799;-55
2022/09/11 01:02:15;;;;;;;;;41.60;36.60;;;;;21.80;50.67;98275.78;6163416;28;97071;-55
2022/09/11 01:05:21;;;;;;;;;30.00;29.00;;;;;21.79;50.33;98277.75;6165400;28;97593;-57
2022/09/11 01:08:24;;;;;;;;;37.40;34.40;;;;;21.67;50.45;98257.44;6164172;28;97208;-56
2022/09/11 01:11:44;;;;;;;;;36.80;33.60;;;;;21.79;50.80;98271.44;6164629;28;97384;-60
2022/09/11 01:14:56;;;;;;;;;42.50;36.25;;;;;21.81;50.69;98285.66;6166083;28;98151;-56
2022/09/11 01:18:06;;;;;;;;;40.00;35.00;;;;;21.82;50.74;98276.31;6165532;28;97504;-57
2022/09/11 01:21:35;;;;;;;;;35.00;32.20;;;;;21.84;50.93;98283.13;6158053;28;97453;-56
2022/09/11 01:24:56;;;;;;;;;38.50;35.25;;;;;21.87;51.32;98274.25;6163629;28;97273;-58
2022/09/11 01:28:06;;;;;;;;;34.00;32.00;;;;;21.90;51.53;98273.63;6162867;28;96766;-56
2022/09/11 01:31:13;;;;;;;;;33.80;31.80;;;;;21.89;51.22;98268.47;6156821;28;97616;-58
2022/09/11 01:34:24;;;;;;;;;32.60;31.00;;;;;21.87;51.34;98262.47;6156796;28;96843;-57
2022/09/11 01:37:37;;;;;;;;;41.00;35.75;;;;;21.97;51.43;98270.50;6163058;28;98076;-57
2022/09/11 01:40:49;;;;;;;;;36.20;33.40;;;;;21.99;51.32;98271.00;6165147;28;97219;-55
2022/09/11 01:44:01;;;;;;;;;39.80;35.80;;;;;21.99;51.70;98266.28;6168644;28;98199;-58
2022/09/11 01:47:10;;;;;;;;;37.00;33.00;;;;;22.01;51.60;98269.56;6162645;28;96832;-57
2022/09/11 01:50:18;;;;;;;;;39.60;35.00;;;;;22.03;51.43;98272.00;6135892;28;97501;-57
2022/09/11 01:53:27;;;;;;;;;37.00;33.00;;;;;22.05;51.53;98269.75;6169310;28;96729;-55
2022/09/11 01:56:36;;;;;;;;;43.00;37.80;;;;;22.06;51.54;98260.38;6162638;28;96817;-56
2022/09/11 01:59:46;;;;;;;;;39.25;35.25;;;;;22.08;51.65;98265.56;6163365;28;96662;-58
2022/09/11 02:02:56;;;;;;;;;31.60;30.20;;;;;22.09;51.77;98268.00;6163447;28;97669;-56
2022/09/11 02:06:03;;;;;;;;;46.20;39.80;;;;;22.09;51.50;98261.72;6163065;28;97491;-57
2022/09/11 02:09:11;;;;;;;;;31.50;30.50;;;;;22.08;51.53;98260.91;6163297;28;97179;-57
2022/09/11 02:12:19;;;;;;;;;36.00;33.25;;;;;22.09;51.46;98248.78;6164903;28;96956;-60
2022/09/11 02:15:30;;;;;;;;;40.40;36.20;;;;;22.09;51.47;98256.22;6159240;28;96921;-54
2022/09/11 02:18:44;;;;;;;;;29.67;29.33;;;;;22.04;51.61;98252.44;6159083;28;97235;-58
2022/09/11 02:21:49;;;;;;;;;33.60;32.00;;;;;22.02;51.71;98251.16;6163156;28;97447;-55
2022/09/11 02:24:53;;;;;;;;;33.25;31.50;;;;;22.01;51.78;98261.31;6160685;28;97754;-55
2022/09/11 02:27:57;;;;;;;;;37.20;33.40;;;;;22.01;51.88;98252.28;6161124;28;97117;-59
2022/09/11 02:31:03;;;;;;;;;35.75;32.75;;;;;22.01;51.80;98252.28;6163013;28;96942;-58
2022/09/11 02:34:09;;;;;;;;;23.20;23.20;;;;;21.98;52.21;98253.72;6163367;28;97314;-58
2022/09/11 02:37:22;;;;;;;;;47.00;40.40;;;;;21.97;51.78;98238.38;6177393;28;97711;-57
2022/09/11 02:40:44;;;;;;;;;41.80;36.80;;;;;21.97;51.98;98232.88;6162962;28;97303;-61
2022/09/11 02:43:58;;;;;;;;;35.60;33.20;;;;;21.95;51.89;98234.28;6163316;28;97243;-55
2022/09/11 02:47:16;;;;;;;;;35.60;33.00;;;;;21.95;51.86;98234.28;6161511;28;97628;-58
2022/09/11 02:50:32;;;;;;;;;35.60;33.00;;;;;21.91;52.03;98233.28;6161305;28;96698;-60
2022/09/11 02:53:46;;;;;;;;;33.00;31.00;;;;;21.91;51.98;98236.00;6162428;28;97783;-58
2022/09/11 02:56:56;;;;;;;;;40.00;35.00;;;;;21.92;52.02;98246.69;6160090;28;96826;-57
2022/09/11 03:00:02;;;;;;;;;36.20;33.60;;;;;21.95;52.28;98234.28;6163970;28;98097;-58
2022/09/11 03:03:11;;;;;;;;;44.20;38.00;;;;;21.95;52.13;98240.59;6161383;28;96521;-58
2022/09/11 03:06:18;;;;;;;;;31.60;30.00;;;;;21.96;52.66;98244.16;6162032;28;98341;-60
2022/09/11 03:09:21;;;;;;;;;42.40;36.20;;;;;21.96;52.57;98241.41;6162638;28;97388;-64
2022/09/11 03:12:29;;;;;;;;;43.20;37.60;;;;;21.94;52.38;98238.19;6142692;28;97510;-59
2022/09/11 03:15:33;;;;;;;;;31.20;30.20;;;;;21.94;52.44;98235.44;6161077;28;96771;-61
2022/09/11 03:18:38;;;;;;;;;16.60;16.60;;;;;21.94;52.45;98232.69;6161686;28;97399;-59
2022/09/11 03:21:43;;;;;;;;;21.25;21.25;;;;;21.92;52.28;98230.22;6163994;28;97556;-59
2022/09/11 03:24:46;;;;;;;;;30.50;30.00;;;;;21.93;52.37;98236.53;6160124;28;97156;-58
2022/09/11 03:27:50;;;;;;;;;35.80;33.00;;;;;21.91;52.30;98241.50;6161460;28;97894;-59
2022/09/11 03:30:53;;;;;;;;;20.80;20.20;;;;;21.91;52.40;98238.75;6163308;28;97612;-59
2022/09/11 03:34:01;;;;;;;;;37.25;34.25;;;;;21.91;52.52;98245.06;6162831;28;96694;-56
2022/09/11 03:37:05;;;;;;;;;50.40;42.80;;;;;21.89;52.44;98238.28;6160968;28;97061;-59
2022/09/11 03:40:09;;;;;;;;;42.40;37.40;;;;;21.86;51.97;98245.19;6161525;28;96611;-61
2022/09/11 03:43:13;;;;;;;;;51.40;43.80;;;;;21.87;52.08;98237.75;6154365;28;97403;-58
2022/09/11 03:46:17;;;;;;;;;23.60;23.60;;;;;21.87;52.15;98241.31;6169359;28;97444;-56
2022/09/11 03:49:23;;;;;;;;;32.50;31.50;;;;;21.86;52.15;98242.44;6158835;28;97520;-58
2022/09/11 03:52:29;;;;;;;;;41.60;36.60;;;;;21.87;51.98;98244.06;6162546;28;97065;-58
2022/09/11 03:55:33;;;;;;;;;33.80;32.40;;;;;21.68;52.17;98212.44;6158688;28;96901;-60
2022/09/11 03:58:37;;;;;;;;;33.20;32.00;;;;;21.88;52.07;98240.22;6158434;28;97466;-57
2022/09/11 04:01:40;;;;;;;;;31.67;31.00;;;;;21.90;52.18;98248.09;6160651;28;96910;-58
2022/09/11 04:04:45;;;;;;;;;44.00;38.00;;;;;21.90;52.08;98248.09;6157649;28;97434;-56
2022/09/11 04:07:48;;;;;;;;;28.60;27.60;;;;;21.93;51.83;98251.09;6159633;28;96880;-57
2022/09/11 04:10:56;;;;;;;;;30.40;30.00;;;;;21.94;52.11;98252.69;6160610;28;97450;-57
2022/09/11 04:14:02;;;;;;;;;32.80;31.80;;;;;21.96;52.21;98253.22;6161143;28;97028;-57
2022/09/11 04:17:07;;;;;;;;;48.20;41.40;;;;;21.97;52.02;98243.84;6157593;28;97073;-61
2022/09/11 04:20:13;;;;;;;;;43.00;38.00;;;;;21.96;51.94;98244.97;6169832;28;97070;-58
2022/09/11 04:23:19;;;;;;;;;28.00;28.00;;;;;21.87;51.76;98222.13;6177194;28;96886;-57
2022/09/11 04:26:24;;;;;;;;;41.20;36.40;;;;;22.02;52.01;98253.91;6159274;28;98147;-58
2022/09/11 04:29:33;;;;;;;;;25.00;25.00;;;;;21.96;52.25;98238.66;6168918;28;97820;-59
2022/09/11 04:32:37;;;;;;;;;29.80;29.40;;;;;22.04;52.21;98255.19;6167377;28;97312;-58
2022/09/11 04:35:42;;;;;;;;;39.00;35.40;;;;;22.07;52.23;98258.44;6160544;28;96922;-55
2022/09/11 04:38:47;;;;;;;;;31.75;30.50;;;;;22.09;52.28;98259.75;6161220;28;96703;-59
2022/09/11 04:41:53;;;;;;;;;33.60;32.00;;;;;22.10;51.94;98255.06;6160281;28;97450;-59
2022/09/11 04:44:56;;;;;;;;;30.00;29.25;;;;;22.11;52.14;98256.69;6160729;28;98027;-59
2022/09/11 04:48:00;;;;;;;;;39.60;35.60;;;;;22.11;51.93;98251.22;6157937;28;97508;-58
2022/09/11 04:51:07;;;;;;;;;39.00;35.25;;;;;22.01;51.98;98244.84;6160070;28;97036;-57
2022/09/11 04:54:13;;;;;;;;;34.00;32.00;;;;;22.10;51.95;98252.31;6159461;28;96857;-57
2022/09/11 04:57:17;;;;;;;;;36.00;33.00;;;;;22.13;52.28;98248.97;6160183;28;97703;-55
2022/09/11 05:00:21;;;;;;;;;32.00;31.00;;;;;22.13;51.94;98255.28;6158210;28;96592;-55
2022/09/11 05:03:24;;;;;;;;;35.60;33.00;;;;;22.17;52.19;98259.03;6152234;28;97915;-56
2022/09/11 05:06:32;;;;;;;;;33.00;32.00;;;;;22.11;52.11;98249.28;6158817;28;97422;-57
2022/09/11 05:09:37;;;;;;;;;42.40;37.00;;;;;22.22;52.10;98258.09;6157943;28;97561;-57
2022/09/11 05:12:41;;;;;;;;;27.80;27.80;;;;;22.22;52.17;98253.41;6157667;28;97266;-58
2022/09/11 05:15:45;;;;;;;;;35.60;33.20;;;;;22.23;52.15;98255.03;6155098;28;97474;-55
2022/09/11 05:18:51;;;;;;;;;35.80;33.00;;;;;22.25;52.19;98249.22;6151355;28;97534;-57
2022/09/11 05:21:57;;;;;;;;;42.20;37.40;;;;;22.27;51.75;98256.03;6158805;28;97732;-57
2022/09/11 05:25:01;;;;;;;;;29.75;29.25;;;;;22.29;51.85;98258.44;6158886;28;97422;-57
2022/09/11 05:28:05;;;;;;;;;32.00;31.00;;;;;22.31;51.59;98247.97;6179682;28;100974;-59
2022/09/11 05:31:12;;;;;;;;;25.00;25.00;;;;;22.30;51.72;98249.91;6163530;28;97064;-55
2022/09/11 05:34:15;;;;;;;;;12.40;12.00;;;;;22.32;51.51;98255.09;6161382;28;97485;-58
2022/09/11 05:37:21;;;;;;;;;37.00;33.60;;;;;22.33;51.89;98254.75;6176313;28;97434;-56
2022/09/11 05:40:25;;;;;;;;;44.20;38.60;;;;;22.34;51.97;98253.63;6163898;28;96718;-57
2022/09/11 05:43:28;;;;;;;;;26.50;26.00;;;;;22.35;52.00;98251.69;6161182;28;98074;-58
2022/09/11 05:46:32;;;;;;;;;43.50;38.00;;;;;22.38;52.19;98251.09;6153275;28;97210;-60
2022/09/11 05:49:38;;;;;;;;;40.80;35.80;;;;;22.44;51.69;98249.81;6159938;28;97303;-58
2022/09/11 05:52:43;;;;;;;;;36.40;33.40;;;;;22.48;52.04;98252.75;6159879;28;97894;-56
2022/09/11 05:55:47;;;;;;;;;44.25;38.25;;;;;22.48;51.65;98254.34;6162779;28;97601;-57
2022/09/11 05:58:52;;;;;;;;;35.20;31.80;;;;;22.51;51.55;98252.94;6163532;28;97391;-58
2022/09/11 06:02:01;;;;;;;;;31.00;30.25;;;;;22.51;51.67;98243.88;6163307;28;97628;-62
2022/09/11 06:05:14;;;;;;;;;23.80;23.80;;;;;22.53;51.40;98250.66;6164131;28;97329;-59
2022/09/11 06:08:19;;;;;;;;;32.00;30.00;;;;;22.57;51.72;98251.69;6162664;28;97422;-59
2022/09/11 06:11:23;;;;;;;;;46.80;40.00;;;;;22.61;51.40;98260.91;6163516;28;96908;-59
2022/09/11 06:14:27;;;;;;;;;33.20;32.00;;;;;22.68;51.77;98260.44;6162615;28;96897;-58
2022/09/11 06:17:30;;;;;;;;;41.25;36.25;;;;;22.74;51.10;98262.78;6159127;28;97479;-59
2022/09/11 06:20:35;;;;;;;;;41.00;36.00;;;;;22.81;51.10;98263.16;6163228;28;97539;-59
2022/09/11 06:23:44;;;;;;;;;35.80;33.00;;;;;22.87;51.00;98264.59;6161584;28;98231;-59
2022/09/11 06:26:48;;;;;;;;;41.50;35.50;;;;;22.94;51.07;98264.16;6162190;28;97354;-58
2022/09/11 06:29:54;;;;;;;;;40.20;35.20;;;;;23.02;50.77;98268.09;6163490;28;96418;-58
2022/09/11 06:32:57;;;;;;;;;28.00;27.33;;;;;23.11;50.85;98267.00;6162090;28;98181;-57
2022/09/11 06:36:02;;;;;;;;;49.40;42.00;;;;;23.22;50.54;98270.25;6161605;28;97033;-56
2022/09/11 06:39:07;;;;;;;;;38.40;33.40;;;;;23.30;50.36;98263.97;6160218;28;97589;-60
2022/09/11 06:42:11;;;;;;;;;36.00;31.40;;;;;23.35;50.23;98271.25;6161193;28;97504;-55
2022/09/11 06:45:16;;;;;;;;;36.40;32.80;;;;;23.39;49.86;98266.72;6162351;28;96817;-59
2022/09/11 06:48:19;;;;;;;;;30.20;28.60;;;;;23.43;49.53;98265.78;6159899;28;97604;-59
2022/09/11 06:51:23;;;;;;;;;14.00;13.75;;;;;23.46;49.25;98258.84;6161539;28;97423;-59
2022/09/11 06:54:29;;;;;;;;;38.00;34.40;;;;;23.50;49.29;98266.16;6157009;28;97601;-61
2022/09/11 06:57:34;;;;;;;;;47.50;39.75;;;;;23.56;49.66;98259.34;6160502;28;97504;-58
2022/09/11 07:00:47;;;;;;;;;48.80;41.20;;;;;23.59;49.10;98244.97;6160876;28;97256;-58
2022/09/11 07:03:52;;;;;;;;;26.60;26.60;;;;;23.60;48.89;98248.53;6160197;28;97494;-59
2022/09/11 07:06:56;;;;;;;;;25.20;24.20;;;;;23.61;48.72;98250.94;6170370;28;96618;-57
2022/09/11 07:10:03;;;;;;;;;39.75;35.25;;;;;23.50;48.81;98244.16;6160710;28;97499;-60
2022/09/11 07:13:07;;;;;;;;;27.00;26.80;;;;;23.61;48.90;98258.38;6158741;28;97042;-59
2022/09/11 07:16:12;;;;;;;;;33.00;32.00;;;;;23.63;48.90;98267.94;6161855;28;96951;-60
2022/09/11 07:19:18;;;;;;;;;44.60;38.60;;;;;23.65;48.81;98259.38;6161631;28;97538;-59
2022/09/11 07:22:21;;;;;;;;;32.20;30.60;;;;;23.61;49.22;98255.63;6161000;28;97449;-59
2022/09/11 07:25:27;;;;;;;;;31.60;30.00;;;;;23.67;48.87;98257.09;6159617;28;96776;-58
2022/09/11 07:28:30;;;;;;;;;42.20;36.00;;;;;23.68;48.69;98258.72;6160655;28;97310;-58
2022/09/11 07:31:34;;;;;;;;;25.20;25.00;;;;;23.71;48.70;98247.88;6160966;28;98095;-61
2022/09/11 07:34:38;;;;;;;;;41.20;36.80;;;;;23.80;48.55;98247.09;6151639;28;97892;-57
2022/09/11 07:37:44;;;;;;;;;43.40;37.80;;;;;23.90;48.16;98255.00;6157662;28;98057;-59
2022/09/11 07:40:55;;;;;;;;;41.80;36.80;;;;;23.95;47.91;98252.06;6159440;28;97108;-58
2022/09/11 07:44:00;;;;;;;;;47.80;41.40;;;;;23.96;47.89;98259.22;6159146;28;97323;-59
2022/09/11 07:47:05;;;;;;;;;43.25;37.25;;;;;23.94;47.97;98256.00;6151843;28;98041;-56
2022/09/11 07:50:14;;;;;;;;;44.60;38.40;;;;;23.93;48.05;98255.19;6172857;28;96903;-56
2022/09/11 07:53:18;;;;;;;;;34.60;32.60;;;;;23.92;48.37;98261.81;6160400;28;96746;-59
2022/09/11 07:56:27;;;;;;;;;31.40;29.20;;;;;23.91;48.26;98273.94;6159539;28;97297;-58
2022/09/11 07:59:31;;;;;;;;;52.00;44.00;;;;;23.86;48.64;98265.84;6162819;28;99750;-65
2022/09/11 08:02:35;;;;;;;;;23.40;23.20;;;;;23.84;48.33;98270.06;6161212;28;97087;-61
2022/09/11 08:05:39;;;;;;;;;33.60;32.00;;;;;23.80;48.80;98267.13;6160240;28;97475;-56
2022/09/11 08:08:46;;;;;;;;;27.60;26.60;;;;;23.75;48.62;98273.59;6161124;28;97475;-62
2022/09/11 08:11:52;;;;;;;;;44.60;38.40;;;;;23.71;48.77;98275.41;6160806;28;97264;-59
2022/09/11 08:14:56;;;;;;;;;27.33;27.33;;;;;23.66;48.79;98281.06;6178707;28;97093;-57
2022/09/11 08:17:59;;;;;;;;;54.40;45.40;;;;;23.56;48.75;98275.84;6150582;28;97105;-59
2022/09/11 08:21:07;;;;;;;;;32.25;30.75;;;;;23.52;48.99;98279.56;6159593;28;97202;-59
2022/09/11 08:24:16;;;;;;;;;54.60;46.00;;;;;23.48;49.47;98286.84;6158426;28;97416;-56
2022/09/11 08:27:22;;;;;;;;;30.40;28.80;;;;;23.45;49.83;98274.56;6164732;28;97035;-57
2022/09/11 08:30:26;;;;;;;;;46.20;39.20;;;;;23.47;49.95;98277.78;6160611;28;97085;-59
2022/09/11 08:33:30;;;;;;;;;44.20;38.60;;;;;23.31;50.09;98249.09;6155447;28;97243;-54
2022/09/11 08:36:34;;;;;;;;;35.25;32.75;;;;;23.53;50.24;98273.75;6149430;28;97299;-64
2022/09/11 08:39:37;;;;;;;;;46.00;38.00;;;;;23.56;50.12;98277.78;6152850;28;96795;-58
2022/09/11 08:42:46;;;;;;;;;39.40;35.40;;;;;23.61;50.33;98281.19;6165322;28;98057;-55
2022/09/11 08:45:54;;;;;;;;;32.25;30.50;;;;;23.66;50.15;98281.06;6167298;28;97413;-56
2022/09/11 08:49:06;;;;;;;;;29.20;29.20;;;;;23.72;50.20;98285.28;6166565;28;98534;-63
2022/09/11 08:52:15;;;;;;;;;39.00;34.75;;;;;23.80;50.26;98283.66;6153862;28;97382;-59
2022/09/11 08:55:28;;;;;;;;;47.00;40.00;;;;;23.89;50.20;98290.00;6168000;28;98820;-60
2022/09/11 08:58:44;;;;;;;;;38.80;35.00;;;;;23.96;49.74;98295.81;6156054;28;96809;-58
2022/09/11 09:02:02;;;;;;;;;40.00;36.00;;;;;24.01;49.88;98287.41;6167718;28;98284;-64
2022/09/11 09:05:16;;;;;;;;;25.75;25.00;;;;;24.08;49.53;98281.41;6157219;28;97378;-57
2022/09/11 09:08:40;;;;;;;;;46.00;39.00;;;;;24.10;49.52;98285.44;6156802;28;97551;-58
2022/09/11 09:11:55;;;;;;;;;36.00;32.50;;;;;24.09;49.49;98289.34;6145411;28;97860;-58
2022/09/11 09:15:16;;;;;;;;;31.60;30.60;;;;;24.07;49.56;98286.09;6175162;28;97516;-59
2022/09/11 09:18:30;;;;;;;;;35.75;33.00;;;;;24.09;49.70;98291.31;6176582;28;97112;-57
2022/09/11 09:21:40;;;;;;;;;30.00;29.40;;;;;24.07;49.01;98280.59;6145615;28;100325;-59
2022/09/11 09:24:49;;;;;;;;;40.20;35.80;;;;;24.21;49.43;98293.41;6161276;28;97125;-58
2022/09/11 09:27:59;;;;;;;;;38.00;34.50;;;;;24.33;49.43;98299.09;6162858;28;96898;-59
2022/09/11 09:31:08;;;;;;;;;32.00;31.00;;;;;24.43;49.00;98301.50;6163303;28;96695;-60
2022/09/11 09:34:18;;;;;;;;;34.20;32.20;;;;;24.53;49.11;98299.19;6162013;28;97268;-57
2022/09/11 09:37:25;;;;;;;;;24.20;23.60;;;;;24.61;48.37;98297.59;6163948;28;97496;-58
2022/09/11 09:40:32;;;;;;;;;14.00;14.00;;;;;24.65;48.16;98295.78;6162092;28;97388;-59
2022/09/11 09:43:50;;;;;;;;;37.60;34.40;;;;;24.71;47.81;98297.25;6158024;28;99214;-62
2022/09/11 09:46:56;;;;;;;;;32.00;30.60;;;;;24.76;47.61;98307.28;6161825;28;98633;-56
2022/09/11 09:49:59;;;;;;;;;33.40;32.20;;;;;24.80;47.51;98302.72;6163477;28;96874;-57
2022/09/11 09:53:10;;;;;;;;;38.40;34.40;;;;;24.77;47.28;98295.94;6156552;28;97346;-59
2022/09/11 09:56:18;;;;;;;;;50.00;42.80;;;;;24.80;47.22;98300.78;6165623;28;96703;-63
2022/09/11 09:59:28;;;;;;;;;32.00;31.00;;;;;24.83;47.14;98305.63;6146652;28;98456;-58
2022/09/11 10:02:39;;;;;;;;;29.25;28.50;;;;;24.88;47.28;98299.97;6163172;28;99745;-58
2022/09/11 10:05:44;;;;;;;;;37.25;33.50;;;;;24.92;47.33;98298.16;6168988;28;96676;-59
2022/09/11 10:08:48;;;;;;;;;36.60;33.60;;;;;24.80;46.84;98287.00;6163224;28;97814;-59
2022/09/11 10:11:56;;;;;;;;;30.50;30.00;;;;;24.78;46.88;98271.91;6164210;28;97021;-59
2022/09/11 10:15:02;;;;;;;;;37.20;34.00;;;;;24.96;46.57;98295.56;6165862;28;97246;-58
2022/09/11 10:18:40;;;;;;;;;34.00;32.00;;;;;25.01;46.47;98298.97;6163520;28;96545;-59
2022/09/11 10:21:45;;;;;;;;;35.67;32.67;;;;;25.13;46.71;98302.94;6166234;28;96978;-63
2022/09/11 10:24:58;;;;;;;;;34.00;32.25;;;;;25.23;46.38;98308.09;6162639;28;96758;-57
2022/09/11 10:28:07;;;;;;;;;29.00;28.20;;;;;25.30;45.84;98300.13;6152175;28;97070;-58
2022/09/11 10:31:15;;;;;;;;;33.50;32.25;;;;;25.38;45.73;98313.06;6158985;28;97530;-58
2022/09/11 10:34:21;;;;;;;;;35.60;33.00;;;;;25.45;45.47;98300.38;6159573;28;96893;-58
2022/09/11 10:37:28;;;;;;;;;35.80;33.40;;;;;25.51;44.68;98302.94;6152718;28;97793;-57
2022/09/11 10:40:32;;;;;;;;;45.00;39.00;;;;;25.55;44.95;98303.94;6150076;28;98010;-58
2022/09/11 10:43:43;;;;;;;;;26.75;26.50;;;;;25.58;45.14;98298.53;6151279;28;97893;-56
2022/09/11 10:47:03;;;;;;;;;35.00;33.00;;;;;25.60;44.85;98298.22;6155463;28;96796;-57
2022/09/11 10:50:22;;;;;;;;;23.00;23.00;;;;;25.68;45.13;98294.59;6145165;28;97021;-55
2022/09/11 10:53:33;;;;;;;;;11.25;10.50;;;;;25.61;44.50;98289.59;6153801;28;97396;-57
2022/09/11 10:56:48;;;;;;;;;8.00;7.20;;;;;25.58;44.19;98295.78;6159105;28;98413;-59
2022/09/11 11:00:02;;;;;;;;;31.20;30.00;;;;;25.61;44.19;98284.06;6160588;28;97435;-58
2022/09/11 11:03:11;;;;;;;;;31.75;30.75;;;;;25.70;44.24;98301.41;6152522;28;98081;-58
2022/09/11 11:06:26;;;;;;;;;29.20;29.00;;;;;25.78;43.80;98292.25;6151816;28;97071;-59
2022/09/11 11:09:54;;;;;;;;;38.60;34.60;;;;;25.91;43.60;98293.13;6155805;28;98110;-60
2022/09/11 11:13:12;;;;;;;;;48.80;41.60;;;;;25.97;43.05;98304.78;6156923;28;97763;-54
2022/09/11 11:16:23;;;;;;;;;47.80;41.20;;;;;25.96;42.82;98305.91;6156489;28;97522;-57
2022/09/11 11:19:55;;;;;;;;;32.75;31.00;;;;;25.97;43.43;98313.06;6148737;28;98584;-59
2022/09/11 11:23:21;;;;;;;;;35.00;32.00;;;;;25.95;43.59;98313.38;6154473;28;97820;-56
2022/09/11 11:26:42;;;;;;;;;30.00;30.00;;;;;25.96;43.83;98314.19;6158256;28;97234;-58
2022/09/11 11:30:05;;;;;;;;;32.00;30.25;;;;;25.97;43.92;98315.81;6157475;28;97334;-61
2022/09/11 11:33:34;;;;;;;;;28.40;28.40;;;;;25.94;44.17;98322.03;6158433;28;98401;-65
2022/09/11 11:36:44;;;;;;;;;39.80;35.60;;;;;25.80;44.74;98289.16;6155939;28;98560;-56
2022/09/11 11:39:54;;;;;;;;;36.00;33.00;;;;;25.91;44.69;98303.34;6156937;28;97477;-58
2022/09/11 11:43:05;;;;;;;;;25.00;25.00;;;;;25.82;44.46;98298.72;6157588;28;97736;-58
2022/09/11 11:46:16;;;;;;;;;29.00;28.00;;;;;25.94;44.60;98311.78;6170023;28;97347;-59
2022/09/11 11:49:26;;;;;;;;;31.80;30.40;;;;;25.94;44.42;98310.97;6155506;28;97015;-58
2022/09/11 11:52:49;;;;;;;;;29.75;29.75;;;;;25.78;44.83;98294.19;6157090;28;98568;-60
2022/09/11 11:56:04;;;;;;;;;29.80;29.20;;;;;25.87;44.76;98312.31;6162441;28;97608;-60
2022/09/11 11:59:16;;;;;;;;;31.60;30.60;;;;;25.78;44.96;98308.00;6160241;28;97022;-62
2022/09/11 12:02:24;;;;;;;;;35.60;33.00;;;;;25.67;45.25;98321.38;6158098;28;97929;-57
2022/09/11 12:05:32;;;;;;;;;27.00;26.80;;;;;25.62;45.59;98315.25;6159857;28;97047;-56
2022/09/11 12:08:43;;;;;;;;;34.67;32.17;;;;;25.58;45.77;98309.59;6153000;28;97728;-57
2022/09/11 12:11:50;;;;;;;;;47.00;40.20;;;;;25.56;45.97;98320.13;6164435;28;97477;-61
2022/09/11 12:15:03;;;;;;;;;34.00;31.50;;;;;25.44;45.92;98298.75;6149359;28;97241;-58
2022/09/11 12:18:23;;;;;;;;;31.00;30.00;;;;;25.59;45.81;98311.22;6153073;28;98196;-58
2022/09/11 12:22:03;;;;;;;;;19.50;19.50;;;;;25.63;45.46;98306.63;6149891;28;97335;-59
2022/09/11 12:25:48;;;;;;;;;10.40;9.40;;;;;25.73;45.59;98317.28;6155341;28;98212;-57
2022/09/11 12:29:50;;;;;;;;;27.60;27.60;;;;;25.83;45.27;98310.56;6148058;28;98771;-56
2022/09/11 12:32:56;;;;;;;;;22.80;22.00;;;;;26.01;45.18;98308.47;6152053;28;97802;-60
2022/09/11 12:36:00;;;;;;;;;37.80;34.80;;;;;26.16;44.38;98316.97;6157173;28;97063;-60
2022/09/11 12:39:24;;;;;;;;;43.80;38.00;;;;;26.35;43.93;98312.94;6153551;28;97753;-61
2022/09/11 12:42:56;;;;;;;;;28.20;27.80;;;;;26.55;42.82;98306.56;6172109;28;97384;-57
2022/09/11 12:46:00;;;;;;;;;33.50;32.00;;;;;26.73;42.52;98296.97;6109959;28;97975;-60
2022/09/11 12:49:11;;;;;;;;;36.40;33.40;;;;;26.98;41.86;98304.19;6157162;28;97421;-62
2022/09/11 12:52:34;;;;;;;;;25.80;24.80;;;;;26.91;40.49;98270.75;6157751;28;97795;-58
2022/09/11 12:55:42;;;;;;;;;43.00;37.80;;;;;27.27;40.11;98289.31;6151385;28;97319;-63
2022/09/11 12:58:51;;;;;;;;;28.20;27.40;;;;;27.34;39.85;98288.75;6103969;28;1605618;-57
2022/09/11 13:01:55;;;;;;;;;46.00;39.80;;;;;27.34;38.88;98288.75;6158932;28;97382;-60
2022/09/11 13:05:00;;;;;;;;;21.80;21.80;;;;;27.25;39.22;98283.34;6157313;28;97324;-59
2022/09/11 13:08:13;;;;;;;;;31.40;30.40;;;;;27.17;39.59;98276.75;6159417;28;96745;-57
2022/09/11 13:11:41;;;;;;;;;23.80;22.80;;;;;27.17;39.75;98289.00;6158772;28;97974;-63
2022/09/11 13:14:50;;;;;;;;;35.20;32.60;;;;;27.15;39.76;98289.34;6152393;28;98006;-57
2022/09/11 13:17:53;;;;;;;;;27.00;27.00;;;;;27.10;39.73;98284.84;6156546;28;97001;-58
2022/09/11 13:21:12;;;;;;;;;33.75;32.00;;;;;27.04;40.05;98297.28;6156696;28;97208;-62
2022/09/11 13:24:24;;;;;;;;;42.20;36.80;;;;;26.77;40.83;98270.25;6159189;28;97071;-60
2022/09/11 13:27:28;;;;;;;;;28.00;28.00;;;;;26.84;41.14;98286.25;6156348;28;97553;-60
2022/09/11 13:30:31;;;;;;;;;26.40;25.40;;;;;26.82;41.79;98289.38;6154843;28;97244;-58
2022/09/11 13:33:35;;;;;;;;;34.40;32.00;;;;;26.77;41.73;98280.50;6155889;28;97199;-60
2022/09/11 13:36:40;;;;;;;;;38.50;35.00;;;;;26.68;42.37;98289.66;6157998;28;97058;-57
2022/09/11 13:39:45;;;;;;;;;34.00;31.80;;;;;26.36;42.77;98253.75;6158783;28;97659;-59
2022/09/11 13:42:49;;;;;;;;;34.40;32.40;;;;;26.45;43.14;98277.41;6154920;28;96962;-60
2022/09/11 13:46:21;;;;;;;;;30.20;29.60;;;;;26.34;43.59;98276.19;6149638;28;97017;-60
2022/09/11 13:49:34;;;;;;;;;37.40;34.40;;;;;26.18;44.08;98270.47;6160463;28;97207;-60
2022/09/11 13:52:42;;;;;;;;;41.00;35.80;;;;;25.96;44.29;98245.16;6160740;28;97091;-60
2022/09/11 13:55:48;;;;;;;;;36.50;33.75;;;;;25.94;44.39;98275.88;6160210;28;97332;-57
2022/09/11 13:58:51;;;;;;;;;34.00;32.00;;;;;25.87;45.11;98284.69;6157995;28;97522;-59
2022/09/11 14:01:59;;;;;;;;;39.00;35.00;;;;;25.84;45.54;98281.81;6160299;28;97220;-58
2022/09/11 14:05:14;;;;;;;;;33.20;31.60;;;;;25.84;46.26;98277.09;6162646;28;97259;-57
2022/09/11 14:08:30;;;;;;;;;30.80;30.00;;;;;25.88;46.26;98272.50;6157365;28;97628;-58
2022/09/11 14:11:34;;;;;;;;;31.80;30.00;;;;;25.93;46.56;98270.69;6157814;28;97517;-60
2022/09/11 14:14:37;;;;;;;;;34.25;32.25;;;;;26.01;46.46;98267.84;6160849;28;97421;-58
2022/09/11 14:17:42;;;;;;;;;30.50;30.00;;;;;26.10;46.35;98276.06;6155982;28;97003;-59
2022/09/11 14:20:46;;;;;;;;;42.40;37.00;;;;;26.18;45.86;98273.25;6161172;28;97195;-58
2022/09/11 14:23:53;;;;;;;;;29.00;29.00;;;;;26.26;45.71;98280.66;6162133;28;97413;-59
2022/09/11 14:26:57;;;;;;;;;30.25;30.00;;;;;26.35;45.27;98277.81;6160717;28;97219;-58